createdAt,value
2017-01-22T00:00:14.961Z,-0.07
2017-01-22T00:01:29.404Z,-0.07
2017-01-22T00:02:42.960Z,-0.06
2017-01-22T00:03:56.493Z,-0.06
2017-01-22T00:05:09.959Z,-0.05
2017-01-22T00:06:23.481Z,-0.02
2017-01-22T00:07:37.238Z,-0.01
2017-01-22T00:08:50.758Z,0.01
2017-01-22T00:10:04.266Z,0.02
2017-01-22T00:11:17.743Z,0.03
2017-01-22T00:12:31.269Z,0.04
2017-01-22T00:13:45.175Z,-0.01
2017-01-22T00:14:58.621Z,-0.06
2017-01-22T00:16:12.135Z,-0.13
2017-01-22T00:17:25.629Z,-0.17
2017-01-22T00:18:39.039Z,-0.19
2017-01-22T00:19:53.167Z,-0.19
2017-01-22T00:21:06.726Z,-0.19
2017-01-22T00:22:20.233Z,-0.16
2017-01-22T00:23:33.703Z,-0.13
2017-01-22T00:24:47.239Z,-0.08
2017-01-22T00:26:01.006Z,-0.02
2017-01-22T00:27:14.583Z,0.04
2017-01-22T00:28:30.382Z,0.06
2017-01-22T00:29:43.880Z,0.06
2017-01-22T00:30:57.367Z,0.08
2017-01-22T00:32:11.160Z,0.1
2017-01-22T00:33:25.043Z,0.12
2017-01-22T00:34:38.560Z,0.12
2017-01-22T00:35:52.110Z,0.13
2017-01-22T00:37:05.615Z,0.14
2017-01-22T00:38:19.361Z,0.15
2017-01-22T00:39:32.878Z,0.15
2017-01-22T00:40:46.434Z,0.18
2017-01-22T00:42:00.344Z,0.2
2017-01-22T00:43:13.940Z,0.23
2017-01-22T00:44:27.774Z,0.26
2017-01-22T00:45:41.755Z,0.29
2017-01-22T00:46:56.655Z,0.31
2017-01-22T00:48:12.104Z,0.33
2017-01-22T00:49:27.069Z,0.31
2017-01-22T00:50:46.823Z,0.26
2017-01-22T00:52:00.334Z,0.23
2017-01-22T00:53:13.799Z,0.21
2017-01-22T00:54:28.448Z,0.13
2017-01-22T00:55:48.385Z,0.07
2017-01-22T00:57:08.388Z,0.02
2017-01-22T00:58:34.182Z,-0.01
2017-01-22T00:59:57.815Z,-0.07
2017-01-22T01:01:17.580Z,-0.14
2017-01-22T01:02:37.850Z,-0.21
2017-01-22T01:03:57.627Z,-0.29
2017-01-22T01:05:17.007Z,-0.38
2017-01-22T01:06:31.189Z,-0.46
2017-01-22T01:07:45.185Z,-0.55
2017-01-22T01:08:58.679Z,-0.6
2017-01-22T01:10:13.082Z,-0.63
2017-01-22T01:11:26.611Z,-0.65
2017-01-22T01:12:40.222Z,-0.66
2017-01-22T01:13:54.105Z,-0.66
2017-01-22T01:15:07.543Z,-0.67
2017-01-22T01:16:21.325Z,-0.71
2017-01-22T01:17:36.011Z,-0.76
2017-01-22T01:18:49.443Z,-0.77
2017-01-22T01:20:03.172Z,-0.78
2017-01-22T01:21:17.918Z,-0.79
2017-01-22T01:22:31.967Z,-0.82
2017-01-22T01:23:46.834Z,-0.85
2017-01-22T01:25:01.568Z,-0.86
2017-01-22T01:26:16.379Z,-0.87
2017-01-22T01:27:32.269Z,-0.84
2017-01-22T01:28:46.752Z,-0.8
2017-01-22T01:30:01.980Z,-0.77
2017-01-22T01:31:16.575Z,-0.73
2017-01-22T01:32:31.161Z,-0.71
2017-01-22T01:33:46.312Z,-0.74
2017-01-22T01:35:00.733Z,-0.79
2017-01-22T01:36:14.891Z,-0.81
2017-01-22T01:37:28.851Z,-0.85
2017-01-22T01:38:43.751Z,-0.91
2017-01-22T01:39:57.464Z,-0.98
2017-01-22T01:41:11.515Z,-1.06
2017-01-22T01:42:25.175Z,-1.13
2017-01-22T01:43:39.402Z,-1.18
2017-01-22T01:44:54.324Z,-1.21
2017-01-22T01:46:10.729Z,-1.22
2017-01-22T01:47:24.786Z,-1.2
2017-01-22T01:48:38.316Z,-1.21
2017-01-22T01:49:51.791Z,-1.21
2017-01-22T01:51:05.595Z,-1.21
2017-01-22T01:52:19.026Z,-1.22
2017-01-22T01:53:32.500Z,-1.23
2017-01-22T01:54:45.928Z,-1.23
2017-01-22T01:55:59.367Z,-1.2
2017-01-22T01:57:13.126Z,-1.19
2017-01-22T01:58:26.587Z,-1.19
2017-01-22T01:59:40.068Z,-1.18
2017-01-22T02:00:53.539Z,-1.16
2017-01-22T02:02:06.979Z,-1.16
2017-01-22T02:03:20.706Z,-1.18
2017-01-22T02:04:34.227Z,-1.21
2017-01-22T02:05:48.083Z,-1.25
2017-01-22T02:07:20.782Z,-1.26
2017-01-22T02:08:34.684Z,-1.28
2017-01-22T02:09:48.379Z,-1.3
2017-01-22T02:11:01.806Z,-1.31
2017-01-22T02:12:15.290Z,-1.3
2017-01-22T02:13:28.720Z,-1.27
2017-01-22T02:14:42.227Z,-1.25
2017-01-22T02:15:55.964Z,-1.26
2017-01-22T02:17:09.412Z,-1.31
2017-01-22T02:18:23.344Z,-1.33
2017-01-22T02:19:36.827Z,-1.37
2017-01-22T02:20:50.343Z,-1.38
2017-01-22T02:22:04.123Z,-1.38
2017-01-22T02:23:17.637Z,-1.41
2017-01-22T02:24:31.179Z,-1.41
2017-01-22T02:25:44.577Z,-1.39
2017-01-22T02:26:58.708Z,-1.38
2017-01-22T02:28:12.554Z,-1.35
2017-01-22T02:29:25.967Z,-1.31
2017-01-22T02:30:39.462Z,-1.29
2017-01-22T02:31:52.917Z,-1.29
2017-01-22T02:33:06.474Z,-1.31
2017-01-22T02:34:20.323Z,-1.34
2017-01-22T02:35:33.945Z,-1.37
2017-01-22T02:36:48.038Z,-1.37
2017-01-22T02:38:01.597Z,-1.41
2017-01-22T02:39:15.237Z,-1.46
2017-01-22T02:40:29.282Z,-1.48
2017-01-22T02:41:42.865Z,-1.51
2017-01-22T02:42:56.534Z,-1.52
2017-01-22T02:44:10.457Z,-1.51
2017-01-22T02:45:23.909Z,-1.53
2017-01-22T02:46:37.661Z,-1.55
2017-01-22T02:47:51.158Z,-1.58
2017-01-22T02:49:05.011Z,-1.61
2017-01-22T02:50:18.447Z,-1.62
2017-01-22T02:51:31.925Z,-1.62
2017-01-22T02:52:45.683Z,-1.65
2017-01-22T02:53:59.078Z,-1.65
2017-01-22T02:55:12.762Z,-1.64
2017-01-22T02:56:27.484Z,-1.63
2017-01-22T02:57:40.902Z,-1.61
2017-01-22T02:58:54.717Z,-1.6
2017-01-22T03:00:08.153Z,-1.58
2017-01-22T03:01:21.588Z,-1.58
2017-01-22T03:02:38.960Z,-1.58
2017-01-22T03:03:52.459Z,-1.57
2017-01-22T03:05:06.258Z,-1.56
2017-01-22T03:06:19.724Z,-1.57
2017-01-22T03:07:48.097Z,-1.55
2017-01-22T03:09:01.585Z,-1.54
2017-01-22T03:10:15.052Z,-1.54
2017-01-22T03:11:28.930Z,-1.55
2017-01-22T03:12:42.412Z,-1.56
2017-01-22T03:13:55.841Z,-1.56
2017-01-22T03:15:09.302Z,-1.53
2017-01-22T03:16:22.704Z,-1.51
2017-01-22T03:17:36.501Z,-1.47
2017-01-22T03:18:50.027Z,-1.44
2017-01-22T03:20:03.909Z,-1.37
2017-01-22T03:21:17.451Z,-1.33
2017-01-22T03:22:30.905Z,-1.3
2017-01-22T03:23:44.683Z,-1.31
2017-01-22T03:24:58.147Z,-1.38
2017-01-22T03:26:11.579Z,-1.44
2017-01-22T03:27:25.120Z,-1.52
2017-01-22T03:28:39.826Z,-1.61
2017-01-22T03:29:53.941Z,-1.71
2017-01-22T03:31:07.404Z,-1.76
2017-01-22T03:32:20.835Z,-1.78
2017-01-22T03:33:34.298Z,-1.78
2017-01-22T03:34:47.802Z,-1.77
2017-01-22T03:36:01.973Z,-1.76
2017-01-22T03:37:15.500Z,-1.73
2017-01-22T03:38:28.940Z,-1.7
2017-01-22T03:39:42.419Z,-1.65
2017-01-22T03:40:56.269Z,-1.61
2017-01-22T03:42:10.010Z,-1.55
2017-01-22T03:43:23.515Z,-1.49
2017-01-22T03:44:37.046Z,-1.47
2017-01-22T03:45:50.470Z,-1.47
2017-01-22T03:47:03.951Z,-1.49
2017-01-22T03:48:17.709Z,-1.5
2017-01-22T03:49:31.200Z,-1.52
2017-01-22T03:50:44.680Z,-1.55
2017-01-22T03:51:58.110Z,-1.58
2017-01-22T03:53:11.536Z,-1.58
2017-01-22T03:54:25.222Z,-1.57
2017-01-22T03:55:38.717Z,-1.6
2017-01-22T03:56:52.178Z,-1.6
2017-01-22T03:58:05.788Z,-1.61
2017-01-22T03:59:19.216Z,-1.6
2017-01-22T04:00:32.995Z,-1.6
2017-01-22T04:01:46.418Z,-1.61
2017-01-22T04:02:59.860Z,-1.61
2017-01-22T04:04:13.296Z,-1.6
2017-01-22T04:05:26.874Z,-1.56
2017-01-22T04:06:40.672Z,-1.53
2017-01-22T04:07:54.094Z,-1.51
2017-01-22T04:09:07.557Z,-1.48
2017-01-22T04:10:21.398Z,-1.48
2017-01-22T04:11:34.858Z,-1.49
2017-01-22T04:12:48.621Z,-1.57
2017-01-22T04:14:02.088Z,-1.65
2017-01-22T04:15:15.527Z,-1.73
2017-01-22T04:16:29.041Z,-1.82
2017-01-22T04:17:42.460Z,-1.91
2017-01-22T04:18:58.303Z,-1.95
2017-01-22T04:20:11.726Z,-1.99
2017-01-22T04:21:25.153Z,-2.02
2017-01-22T04:22:38.672Z,-2.03
2017-01-22T04:23:52.179Z,-2.07
2017-01-22T04:25:06.443Z,-2.09
2017-01-22T04:26:20.018Z,-2.09
2017-01-22T04:27:33.610Z,-2.09
2017-01-22T04:28:47.159Z,-2.11
2017-01-22T04:30:00.782Z,-2.14
2017-01-22T04:31:14.751Z,-2.15
2017-01-22T04:32:28.342Z,-2.15
2017-01-22T04:33:41.952Z,-2.13
2017-01-22T04:34:55.495Z,-2.13
2017-01-22T04:36:09.169Z,-2.11
2017-01-22T04:37:23.002Z,-2.1
2017-01-22T04:38:36.630Z,-2.08
2017-01-22T04:39:50.072Z,-2.07
2017-01-22T04:41:03.666Z,-2.05
2017-01-22T04:42:17.628Z,-1.99
2017-01-22T04:43:31.731Z,-1.95
2017-01-22T04:44:45.398Z,-1.91
2017-01-22T04:45:59.004Z,-1.86
2017-01-22T04:47:12.726Z,-1.83
2017-01-22T04:48:26.590Z,-1.83
2017-01-22T04:49:40.359Z,-1.8
2017-01-22T04:50:54.741Z,-1.81
2017-01-22T04:52:08.211Z,-1.83
2017-01-22T04:53:21.785Z,-1.86
2017-01-22T04:54:35.366Z,-1.94
2017-01-22T04:55:49.227Z,-1.99
2017-01-22T04:57:02.847Z,-1.99
2017-01-22T04:58:16.873Z,-2.02
2017-01-22T04:59:30.503Z,-2.02
2017-01-22T05:00:44.976Z,-2.04
2017-01-22T05:01:59.439Z,-2.03
2017-01-22T05:03:12.888Z,-2.05
2017-01-22T05:04:28.041Z,-2.09
2017-01-22T05:05:41.490Z,-2.13
2017-01-22T05:06:55.058Z,-2.2
2017-01-22T05:08:09.704Z,-2.26
2017-01-22T05:09:23.225Z,-2.3
2017-01-22T05:10:37.447Z,-2.32
2017-01-22T05:11:51.827Z,-2.31
2017-01-22T05:13:05.398Z,-2.29
2017-01-22T05:14:19.309Z,-2.27
2017-01-22T05:15:34.106Z,-2.24
2017-01-22T05:16:47.639Z,-2.21
2017-01-22T05:18:01.852Z,-2.19
2017-01-22T05:19:16.361Z,-2.16
2017-01-22T05:20:30.493Z,-2.17
2017-01-22T05:21:44.169Z,-2.19
2017-01-22T05:22:57.725Z,-2.18
2017-01-22T05:24:11.445Z,-2.18
2017-01-22T05:25:25.240Z,-2.18
2017-01-22T05:26:39.194Z,-2.16
2017-01-22T05:27:53.144Z,-2.19
2017-01-22T05:29:06.852Z,-2.25
2017-01-22T05:30:20.611Z,-2.3
2017-01-22T05:31:34.130Z,-2.33
2017-01-22T05:32:47.874Z,-2.36
2017-01-22T05:34:01.305Z,-2.33
2017-01-22T05:35:17.014Z,-2.32
2017-01-22T05:36:30.538Z,-2.3
2017-01-22T05:37:43.991Z,-2.27
2017-01-22T05:38:57.763Z,-2.25
2017-01-22T05:40:11.366Z,-2.22
2017-01-22T05:41:26.124Z,-2.2
2017-01-22T05:42:39.617Z,-2.18
2017-01-22T05:43:53.064Z,-2.16
2017-01-22T05:45:06.896Z,-2.15
2017-01-22T05:46:20.419Z,-2.14
2017-01-22T05:47:33.981Z,-2.14
2017-01-22T05:48:47.489Z,-2.15
2017-01-22T05:50:20.209Z,-2.19
2017-01-22T05:51:34.024Z,-2.25
2017-01-22T05:52:47.522Z,-2.27
2017-01-22T05:54:00.992Z,-2.27
2017-01-22T05:55:15.045Z,-2.27
2017-01-22T05:56:28.588Z,-2.25
2017-01-22T05:57:42.915Z,-2.23
2017-01-22T05:58:56.903Z,-2.22
2017-01-22T06:00:10.310Z,-2.18
2017-01-22T06:01:23.802Z,-2.16
2017-01-22T06:02:37.313Z,-2.16
2017-01-22T06:03:51.477Z,-2.17
2017-01-22T06:05:05.088Z,-2.17
2017-01-22T06:06:18.534Z,-2.19
2017-01-22T06:07:32.010Z,-2.23
2017-01-22T06:08:45.464Z,-2.25
2017-01-22T06:09:59.230Z,-2.25
2017-01-22T06:11:13.109Z,-2.26
2017-01-22T06:12:26.698Z,-2.27
2017-01-22T06:13:40.290Z,-2.32
2017-01-22T06:14:53.867Z,-2.37
2017-01-22T06:16:07.743Z,-2.43
2017-01-22T06:17:21.227Z,-2.45
2017-01-22T06:18:34.795Z,-2.48
2017-01-22T06:19:48.256Z,-2.53
2017-01-22T06:21:01.671Z,-2.57
2017-01-22T06:22:15.532Z,-2.61
2017-01-22T06:23:29.153Z,-2.62
2017-01-22T06:24:42.804Z,-2.62
2017-01-22T06:25:56.252Z,-2.65
2017-01-22T06:27:09.722Z,-2.67
2017-01-22T06:28:23.459Z,-2.67
2017-01-22T06:29:38.747Z,-2.73
2017-01-22T06:30:52.609Z,-2.79
2017-01-22T06:32:06.021Z,-2.81
2017-01-22T06:33:19.457Z,-2.82
2017-01-22T06:34:33.322Z,-2.85
2017-01-22T06:35:46.735Z,-2.88
2017-01-22T06:37:00.762Z,-2.87
2017-01-22T06:38:14.596Z,-2.9
2017-01-22T06:39:28.067Z,-2.92
2017-01-22T06:40:41.844Z,-2.91
2017-01-22T06:41:55.447Z,-2.9
2017-01-22T06:43:08.903Z,-2.88
2017-01-22T06:44:22.349Z,-2.88
2017-01-22T06:45:35.840Z,-2.87
2017-01-22T06:46:49.984Z,-2.85
2017-01-22T06:48:03.422Z,-2.83
2017-01-22T06:49:16.846Z,-2.82
2017-01-22T06:50:30.444Z,-2.81
2017-01-22T06:51:46.861Z,-2.81
2017-01-22T06:53:00.615Z,-2.84
2017-01-22T06:54:14.041Z,-2.88
2017-01-22T06:55:27.522Z,-2.9
2017-01-22T06:56:40.952Z,-2.9
2017-01-22T06:57:54.403Z,-2.91
2017-01-22T06:59:08.566Z,-2.9
2017-01-22T07:00:22.098Z,-2.9
2017-01-22T07:01:35.565Z,-2.89
2017-01-22T07:02:49.447Z,-2.89
2017-01-22T07:04:02.862Z,-2.87
2017-01-22T07:05:16.569Z,-2.84
2017-01-22T07:06:30.061Z,-2.84
2017-01-22T07:07:43.453Z,-2.87
2017-01-22T07:08:56.869Z,-2.86
2017-01-22T07:10:10.313Z,-2.86
2017-01-22T07:11:24.088Z,-2.89
2017-01-22T07:12:37.895Z,-2.91
2017-01-22T07:13:51.309Z,-2.91
2017-01-22T07:15:04.731Z,-2.92
2017-01-22T07:16:18.230Z,-2.94
2017-01-22T07:17:32.092Z,-2.91
2017-01-22T07:18:45.553Z,-2.91
2017-01-22T07:19:59.029Z,-2.91
2017-01-22T07:21:12.446Z,-2.89
2017-01-22T07:22:25.979Z,-2.85
2017-01-22T07:23:40.139Z,-2.8
2017-01-22T07:24:53.607Z,-2.77
2017-01-22T07:26:07.501Z,-2.72
2017-01-22T07:27:21.150Z,-2.68
2017-01-22T07:28:34.884Z,-2.66
2017-01-22T07:29:48.681Z,-2.64
2017-01-22T07:31:03.138Z,-2.6
2017-01-22T07:32:16.683Z,-2.57
2017-01-22T07:33:30.241Z,-2.57
2017-01-22T07:34:43.727Z,-2.53
2017-01-22T07:35:57.524Z,-2.46
2017-01-22T07:37:11.411Z,-2.41
2017-01-22T07:38:26.117Z,-2.35
2017-01-22T07:39:39.640Z,-2.36
2017-01-22T07:40:53.223Z,-2.4
2017-01-22T07:42:07.039Z,-2.43
2017-01-22T07:43:20.994Z,-2.48
2017-01-22T07:44:34.533Z,-2.51
2017-01-22T07:45:49.241Z,-2.51
2017-01-22T07:47:03.768Z,-2.51
2017-01-22T07:48:18.553Z,-2.54
2017-01-22T07:49:32.018Z,-2.56
2017-01-22T07:50:45.907Z,-2.56
2017-01-22T07:51:59.405Z,-2.52
2017-01-22T07:53:14.071Z,-2.49
2017-01-22T07:54:28.039Z,-2.45
2017-01-22T07:55:41.538Z,-2.49
2017-01-22T07:56:55.085Z,-2.57
2017-01-22T07:58:08.898Z,-2.62
2017-01-22T07:59:22.984Z,-2.62
2017-01-22T08:00:37.417Z,-2.59
2017-01-22T08:01:51.958Z,-2.59
2017-01-22T08:03:05.438Z,-2.6
2017-01-22T08:04:18.971Z,-2.62
2017-01-22T08:05:32.507Z,-2.65
2017-01-22T08:06:46.363Z,-2.65
2017-01-22T08:08:02.125Z,-2.65
2017-01-22T08:09:16.195Z,-2.66
2017-01-22T08:10:30.134Z,-2.67
2017-01-22T08:11:43.854Z,-2.65
2017-01-22T08:12:57.666Z,-2.6
2017-01-22T08:14:11.318Z,-2.57
2017-01-22T08:15:24.890Z,-2.55
2017-01-22T08:16:38.479Z,-2.52
2017-01-22T08:17:51.909Z,-2.52
2017-01-22T08:19:06.051Z,-2.52
2017-01-22T08:20:19.558Z,-2.51
2017-01-22T08:21:33.067Z,-2.52
2017-01-22T08:22:46.683Z,-2.49
2017-01-22T08:24:00.297Z,-2.49
2017-01-22T08:25:14.085Z,-2.47
2017-01-22T08:26:28.843Z,-2.45
2017-01-22T08:27:42.479Z,-2.4
2017-01-22T08:28:57.273Z,-2.39
2017-01-22T08:30:10.754Z,-2.41
2017-01-22T08:31:24.712Z,-2.41
2017-01-22T08:32:38.319Z,-2.38
2017-01-22T08:33:51.994Z,-2.37
2017-01-22T08:35:05.750Z,-2.32
2017-01-22T08:36:19.329Z,-2.32
2017-01-22T08:37:38.494Z,-2.31
2017-01-22T08:38:51.978Z,-2.33
2017-01-22T08:40:05.417Z,-2.34
2017-01-22T08:41:19.616Z,-2.34
2017-01-22T08:42:33.982Z,-2.31
2017-01-22T08:43:47.891Z,-2.24
2017-01-22T08:45:01.304Z,-2.18
2017-01-22T08:46:14.776Z,-2.15
2017-01-22T08:47:28.270Z,-2.16
2017-01-22T08:48:41.837Z,-2.18
2017-01-22T08:49:56.102Z,-2.15
2017-01-22T08:51:09.589Z,-2.13
2017-01-22T08:52:23.142Z,-2.1
2017-01-22T08:53:36.633Z,-2.05
2017-01-22T08:54:50.145Z,-1.99
2017-01-22T08:56:03.888Z,-1.91
2017-01-22T08:57:17.459Z,-1.8
2017-01-22T08:58:31.351Z,-1.74
2017-01-22T08:59:45.079Z,-1.73
2017-01-22T09:00:58.589Z,-1.76
2017-01-22T09:02:12.372Z,-1.76
2017-01-22T09:03:25.951Z,-1.76
2017-01-22T09:04:39.450Z,-1.75
2017-01-22T09:05:52.922Z,-1.75
2017-01-22T09:07:06.387Z,-1.78
2017-01-22T09:08:20.263Z,-1.76
2017-01-22T09:09:33.965Z,-1.71
2017-01-22T09:10:47.622Z,-1.61
2017-01-22T09:12:01.149Z,-1.47
2017-01-22T09:13:14.734Z,-1.42
2017-01-22T09:14:28.564Z,-1.4
2017-01-22T09:15:42.154Z,-1.37
2017-01-22T09:16:55.626Z,-1.32
2017-01-22T09:18:09.263Z,-1.26
2017-01-22T09:19:22.762Z,-1.21
2017-01-22T09:20:36.620Z,-1.17
2017-01-22T09:21:50.053Z,-1.13
2017-01-22T09:23:03.485Z,-1.09
2017-01-22T09:24:19.190Z,-1.05
2017-01-22T09:25:32.690Z,-1.01
2017-01-22T09:26:46.531Z,-0.99
2017-01-22T09:28:00.095Z,-0.94
2017-01-22T09:29:13.693Z,-0.9
2017-01-22T09:30:27.482Z,-0.85
2017-01-22T09:31:41.000Z,-0.81
2017-01-22T09:32:54.741Z,-0.75
2017-01-22T09:34:08.225Z,-0.71
2017-01-22T09:35:22.615Z,-0.66
2017-01-22T09:36:36.133Z,-0.61
2017-01-22T09:37:49.621Z,-0.57
2017-01-22T09:39:03.411Z,-0.55
2017-01-22T09:40:18.200Z,-0.5
2017-01-22T09:41:31.715Z,-0.45
2017-01-22T09:42:45.130Z,-0.41
2017-01-22T09:43:58.643Z,-0.37
2017-01-22T09:45:12.461Z,-0.35
2017-01-22T09:46:25.940Z,-0.35
2017-01-22T09:47:39.918Z,-0.35
2017-01-22T09:48:53.445Z,-0.35
2017-01-22T09:50:07.616Z,-0.33
2017-01-22T09:51:21.780Z,-0.35
2017-01-22T09:52:35.469Z,-0.32
2017-01-22T09:53:49.439Z,-0.28
2017-01-22T09:55:05.222Z,-0.27
2017-01-22T09:56:19.023Z,-0.28
2017-01-22T09:57:32.825Z,-0.27
2017-01-22T09:58:46.800Z,-0.3
2017-01-22T10:00:00.391Z,-0.28
2017-01-22T10:01:14.299Z,-0.26
2017-01-22T10:02:28.346Z,-0.22
2017-01-22T10:03:42.154Z,-0.23
2017-01-22T10:04:55.653Z,-0.28
2017-01-22T10:06:09.166Z,-0.27
2017-01-22T10:07:24.469Z,-0.29
2017-01-22T10:08:38.087Z,-0.3
2017-01-22T10:09:52.112Z,-0.31
2017-01-22T10:11:05.629Z,-0.3
2017-01-22T10:12:19.297Z,-0.29
2017-01-22T10:13:34.538Z,-0.28
2017-01-22T10:14:48.007Z,-0.27
2017-01-22T10:16:01.894Z,-0.27
2017-01-22T10:17:15.390Z,-0.27
2017-01-22T10:18:28.954Z,-0.25
2017-01-22T10:19:42.483Z,-0.23
2017-01-22T10:20:55.992Z,-0.25
2017-01-22T10:22:09.971Z,-0.28
2017-01-22T10:23:23.423Z,-0.31
2017-01-22T10:24:36.891Z,-0.3
2017-01-22T10:25:50.398Z,-0.25
2017-01-22T10:27:03.922Z,-0.17
2017-01-22T10:28:17.749Z,-0.11
2017-01-22T10:29:31.176Z,-0.05
2017-01-22T10:30:45.125Z,-0.01
2017-01-22T10:31:58.586Z,0.05
2017-01-22T10:33:12.094Z,0.1
2017-01-22T10:34:25.906Z,0.15
2017-01-22T10:35:39.385Z,0.21
2017-01-22T10:36:52.895Z,0.26
2017-01-22T10:38:06.405Z,0.3
2017-01-22T10:39:19.937Z,0.35
2017-01-22T10:40:35.692Z,0.38
2017-01-22T10:41:49.249Z,0.37
2017-01-22T10:43:02.862Z,0.37
2017-01-22T10:44:16.885Z,0.41
2017-01-22T10:45:30.353Z,0.46
2017-01-22T10:46:45.462Z,0.48
2017-01-22T10:48:09.855Z,0.52
2017-01-22T10:49:25.477Z,0.53
2017-01-22T10:50:39.058Z,0.55
2017-01-22T10:51:52.585Z,0.53
2017-01-22T10:53:06.468Z,0.51
2017-01-22T10:54:20.504Z,0.47
2017-01-22T10:55:34.141Z,0.45
2017-01-22T10:56:47.624Z,0.5
2017-01-22T10:58:01.236Z,0.56
2017-01-22T10:59:16.110Z,0.63
2017-01-22T11:00:29.608Z,0.68
2017-01-22T11:01:43.130Z,0.68
2017-01-22T11:02:56.800Z,0.67
2017-01-22T11:04:12.037Z,0.67
2017-01-22T11:05:25.979Z,0.69
2017-01-22T11:06:39.653Z,0.75
2017-01-22T11:07:53.237Z,0.84
2017-01-22T11:09:07.036Z,0.94
2017-01-22T11:10:21.204Z,0.99
2017-01-22T11:11:35.226Z,1.05
2017-01-22T11:12:48.881Z,1.11
2017-01-22T11:14:02.418Z,1.14
2017-01-22T11:15:16.165Z,1.11
2017-01-22T11:16:29.974Z,1.1
2017-01-22T11:17:43.785Z,1.1
2017-01-22T11:18:57.544Z,1.12
2017-01-22T11:20:11.168Z,1.17
2017-01-22T11:21:25.385Z,1.24
2017-01-22T11:22:39.154Z,1.28
2017-01-22T11:23:53.261Z,1.32
2017-01-22T11:25:07.845Z,1.29
2017-01-22T11:26:21.310Z,1.23
2017-01-22T11:27:34.730Z,1.22
2017-01-22T11:28:48.261Z,1.24
2017-01-22T11:30:03.332Z,1.27
2017-01-22T11:31:16.866Z,1.32
2017-01-22T11:32:30.570Z,1.39
2017-01-22T11:33:44.625Z,1.4
2017-01-22T11:34:58.159Z,1.42
2017-01-22T11:36:12.024Z,1.46
2017-01-22T11:37:25.568Z,1.53
2017-01-22T11:38:39.430Z,1.6
2017-01-22T11:39:53.031Z,1.67
2017-01-22T11:41:07.124Z,1.71
2017-01-22T11:42:21.002Z,1.74
2017-01-22T11:43:35.008Z,1.75
2017-01-22T11:44:48.711Z,1.67
2017-01-22T11:46:03.596Z,1.57
2017-01-22T11:47:17.244Z,1.53
2017-01-22T11:48:31.428Z,1.5
2017-01-22T11:49:45.013Z,1.46
2017-01-22T11:50:58.685Z,1.45
2017-01-22T11:52:12.454Z,1.48
2017-01-22T11:53:26.141Z,1.56
2017-01-22T11:54:40.181Z,1.65
2017-01-22T11:55:53.913Z,1.68
2017-01-22T11:57:10.504Z,1.7
2017-01-22T11:58:24.185Z,1.74
2017-01-22T11:59:38.235Z,1.8
2017-01-22T12:00:52.158Z,1.87
2017-01-22T12:02:07.131Z,1.9
2017-01-22T12:03:20.789Z,1.9
2017-01-22T12:04:34.473Z,1.87
2017-01-22T12:05:48.171Z,1.83
2017-01-22T12:07:02.096Z,1.86
2017-01-22T12:08:15.705Z,1.84
2017-01-22T12:09:29.821Z,1.83
2017-01-22T12:10:43.552Z,1.83
2017-01-22T12:11:57.259Z,1.86
2017-01-22T12:13:11.516Z,1.92
2017-01-22T12:14:25.727Z,1.93
2017-01-22T12:15:39.388Z,1.92
2017-01-22T12:16:53.071Z,1.95
2017-01-22T12:18:06.968Z,1.95
2017-01-22T12:19:21.295Z,1.95
2017-01-22T12:20:35.008Z,1.94
2017-01-22T12:21:49.241Z,1.91
2017-01-22T12:23:03.364Z,1.9
2017-01-22T12:24:17.819Z,1.89
2017-01-22T12:25:32.628Z,1.87
2017-01-22T12:26:46.248Z,1.9
2017-01-22T12:28:00.367Z,1.94
2017-01-22T12:29:16.219Z,1.94
2017-01-22T12:30:30.885Z,1.95
2017-01-22T12:31:45.292Z,2
2017-01-22T12:32:59.388Z,2.04
2017-01-22T12:34:15.215Z,2.05
2017-01-22T12:35:29.607Z,2.08
2017-01-22T12:36:44.556Z,2.1
2017-01-22T12:38:02.014Z,2.14
2017-01-22T12:39:19.385Z,2.17
2017-01-22T12:40:34.010Z,2.21
2017-01-22T12:41:52.104Z,2.23
2017-01-22T12:43:06.790Z,2.26
2017-01-22T12:44:21.088Z,2.26
2017-01-22T12:45:36.918Z,2.26
2017-01-22T12:46:51.814Z,2.26
2017-01-22T12:48:06.719Z,2.3
2017-01-22T12:49:21.987Z,2.35
2017-01-22T12:50:36.557Z,2.38
2017-01-22T12:51:51.233Z,2.44
2017-01-22T12:53:08.007Z,2.5
2017-01-22T12:54:24.871Z,2.54
2017-01-22T12:55:40.622Z,2.56
2017-01-22T12:56:54.736Z,2.58
2017-01-22T12:58:08.783Z,2.61
2017-01-22T12:59:24.298Z,2.61
2017-01-22T13:00:39.386Z,2.6
2017-01-22T13:01:54.675Z,2.6
2017-01-22T13:03:08.223Z,2.62
2017-01-22T13:04:23.512Z,2.65
2017-01-22T13:05:37.903Z,2.66
2017-01-22T13:06:51.398Z,2.7
2017-01-22T13:08:06.863Z,2.71
2017-01-22T13:09:21.434Z,2.7
2017-01-22T13:10:36.410Z,2.65
2017-01-22T13:11:49.981Z,2.65
2017-01-22T13:13:03.556Z,2.63
2017-01-22T13:14:19.964Z,2.64
2017-01-22T13:15:33.905Z,2.68
2017-01-22T13:16:47.390Z,2.76
2017-01-22T13:18:01.095Z,2.79
2017-01-22T13:19:16.416Z,2.84
2017-01-22T13:20:30.282Z,2.91
2017-01-22T13:21:44.945Z,2.93
2017-01-22T13:23:01.032Z,2.96
2017-01-22T13:24:17.278Z,2.93
2017-01-22T13:25:31.865Z,2.94
2017-01-22T13:26:46.158Z,2.95
2017-01-22T13:28:01.449Z,2.99
2017-01-22T13:29:15.257Z,3.04
2017-01-22T13:30:28.836Z,3.12
2017-01-22T13:31:42.547Z,3.16
2017-01-22T13:32:57.422Z,3.17
2017-01-22T13:34:10.865Z,3.22
2017-01-22T13:35:25.049Z,3.26
2017-01-22T13:36:38.674Z,3.26
2017-01-22T13:37:52.454Z,3.21
2017-01-22T13:39:06.389Z,3.18
2017-01-22T13:40:20.134Z,3.21
2017-01-22T13:41:33.703Z,3.23
2017-01-22T13:42:47.389Z,3.25
2017-01-22T13:44:00.993Z,3.27
2017-01-22T13:45:15.336Z,3.26
2017-01-22T13:46:29.081Z,3.2
2017-01-22T13:47:42.724Z,3.16
2017-01-22T13:48:57.424Z,3.15
2017-01-22T13:50:11.094Z,3.17
2017-01-22T13:51:26.642Z,3.19
2017-01-22T13:52:41.866Z,3.22
2017-01-22T13:53:55.563Z,3.27
2017-01-22T13:55:09.041Z,3.32
2017-01-22T13:56:23.435Z,3.33
2017-01-22T13:57:37.266Z,3.36
2017-01-22T13:58:51.261Z,3.35
2017-01-22T14:00:05.454Z,3.29
2017-01-22T14:01:20.073Z,3.26
2017-01-22T14:02:33.756Z,3.28
2017-01-22T14:03:47.981Z,3.33
2017-01-22T14:05:01.952Z,3.37
2017-01-22T14:06:15.538Z,3.37
2017-01-22T14:07:29.760Z,3.36
2017-01-22T14:08:43.326Z,3.38
2017-01-22T14:09:57.829Z,3.44
2017-01-22T14:11:12.861Z,3.49
2017-01-22T14:12:26.685Z,3.51
2017-01-22T14:13:40.830Z,3.48
2017-01-22T14:14:55.823Z,3.51
2017-01-22T14:16:09.531Z,3.52
2017-01-22T14:17:24.616Z,3.49
2017-01-22T14:18:38.773Z,3.45
2017-01-22T14:19:52.448Z,3.41
2017-01-22T14:21:06.819Z,3.41
2017-01-22T14:22:20.936Z,3.42
2017-01-22T14:23:34.413Z,3.41
2017-01-22T14:24:47.883Z,3.41
2017-01-22T14:26:01.389Z,3.41
2017-01-22T14:27:30.059Z,3.48
2017-01-22T14:28:44.446Z,3.52
2017-01-22T14:29:57.917Z,3.52
2017-01-22T14:31:14.004Z,3.51
2017-01-22T14:32:29.323Z,3.52
2017-01-22T14:33:42.826Z,3.51
2017-01-22T14:34:56.663Z,3.51
2017-01-22T14:36:10.920Z,3.55
2017-01-22T14:37:24.628Z,3.55
2017-01-22T14:38:39.260Z,3.54
2017-01-22T14:39:53.329Z,3.57
2017-01-22T14:41:07.731Z,3.61
2017-01-22T14:42:21.436Z,3.64
2017-01-22T14:43:35.162Z,3.62
2017-01-22T14:44:48.702Z,3.58
2017-01-22T14:46:03.786Z,3.52
2017-01-22T14:47:18.903Z,3.49
2017-01-22T14:48:33.124Z,3.45
2017-01-22T14:49:48.531Z,3.44
2017-01-22T14:51:02.874Z,3.43
2017-01-22T14:52:17.565Z,3.48
2017-01-22T14:53:32.821Z,3.46
2017-01-22T14:54:46.595Z,3.39
2017-01-22T14:56:00.455Z,3.37
2017-01-22T14:57:15.454Z,3.38
2017-01-22T14:58:29.698Z,3.42
2017-01-22T14:59:43.673Z,3.47
2017-01-22T15:00:57.595Z,3.51
2017-01-22T15:02:11.625Z,3.57
2017-01-22T15:03:25.269Z,3.61
2017-01-22T15:04:39.390Z,3.67
2017-01-22T15:05:54.254Z,3.66
2017-01-22T15:07:08.124Z,3.68
2017-01-22T15:08:22.570Z,3.67
2017-01-22T15:09:36.303Z,3.68
2017-01-22T15:10:49.912Z,3.66
2017-01-22T15:12:04.132Z,3.65
2017-01-22T15:13:18.050Z,3.66
2017-01-22T15:14:31.717Z,3.67
2017-01-22T15:15:45.765Z,3.67
2017-01-22T15:17:00.459Z,3.62
2017-01-22T15:18:15.496Z,3.59
2017-01-22T15:19:29.870Z,3.52
2017-01-22T15:20:43.425Z,3.49
2017-01-22T15:21:57.638Z,3.45
2017-01-22T15:23:11.356Z,3.46
2017-01-22T15:24:25.276Z,3.47
2017-01-22T15:25:39.354Z,3.4
2017-01-22T15:26:53.013Z,3.36
2017-01-22T15:28:06.585Z,3.33
2017-01-22T15:29:20.108Z,3.34
2017-01-22T15:30:34.181Z,3.36
2017-01-22T15:31:47.645Z,3.38
2017-01-22T15:33:02.359Z,3.4
2017-01-22T15:34:15.969Z,3.38
2017-01-22T15:35:29.539Z,3.34
2017-01-22T15:36:43.545Z,3.3
2017-01-22T15:37:57.180Z,3.26
2017-01-22T15:39:11.055Z,3.2
2017-01-22T15:40:24.798Z,3.18
2017-01-22T15:41:38.376Z,3.17
2017-01-22T15:42:52.422Z,3.15
2017-01-22T15:44:06.115Z,3.14
2017-01-22T15:45:20.994Z,3.12
2017-01-22T15:46:34.490Z,3.07
2017-01-22T15:47:50.201Z,3.05
2017-01-22T15:49:04.022Z,3.05
2017-01-22T15:50:17.512Z,3.08
2017-01-22T15:51:32.471Z,3.12
2017-01-22T15:52:46.077Z,3.16
2017-01-22T15:53:59.714Z,3.19
2017-01-22T15:55:13.672Z,3.22
2017-01-22T15:56:28.517Z,3.24
2017-01-22T15:57:42.170Z,3.23
2017-01-22T15:58:56.216Z,3.26
2017-01-22T16:00:09.817Z,3.27
2017-01-22T16:01:23.686Z,3.29
2017-01-22T16:02:37.166Z,3.31
2017-01-22T16:03:51.085Z,3.33
2017-01-22T16:05:04.749Z,3.34
2017-01-22T16:06:18.265Z,3.37
2017-01-22T16:07:32.875Z,3.38
2017-01-22T16:08:46.413Z,3.36